Time;durP1;ratioP1;P1;durP2;ratioP2;P2;SDS_P1;SDS_P2;PMS_P1;PMS_P2;Temp;Humidity;BMP_temperature;BMP_pressure;BME280_temperature;BME280_humidity;BME280_pressure;Samples;Min_cycle;Max_cycle;Signal;HPM_P1;HPM_P2
2021/10/19 00:00:08;;;;;;;5.95;3.83;;;7.30;99.90;;;;;;5033313;28;20025;-48
2021/10/19 00:02:33;;;;;;;11.43;4.95;;;7.40;99.90;;;;;;5033209;28;20033;-46
2021/10/19 00:04:59;;;;;;;4.80;3.47;;;7.30;99.90;;;;;;5033196;28;20029;-46
2021/10/19 00:07:25;;;;;;;6.80;3.92;;;7.30;99.90;;;;;;5033076;28;20124;-50
2021/10/19 00:09:50;;;;;;;6.43;4.10;;;7.40;99.90;;;;;;5031823;28;20286;-48
2021/10/19 00:12:16;;;;;;;7.10;4.55;;;7.40;99.90;;;;;;5033204;28;20092;-53
2021/10/19 00:14:42;;;;;;;8.57;4.85;;;7.40;99.90;;;;;;5033068;28;20036;-51
2021/10/19 00:17:07;;;;;;;6.13;4.07;;;7.40;99.90;;;;;;5033021;28;20021;-49
2021/10/19 00:19:33;;;;;;;7.60;4.07;;;7.30;99.90;;;;;;5033008;28;20169;-48
2021/10/19 00:21:59;;;;;;;8.20;4.90;;;7.30;99.90;;;;;;5033005;28;20025;-47
2021/10/19 00:24:24;;;;;;;6.88;4.50;;;7.30;99.90;;;;;;5031734;28;20586;-51
2021/10/19 00:26:50;;;;;;;9.77;5.10;;;7.30;99.90;;;;;;5032882;28;20026;-48
2021/10/19 00:29:15;;;;;;;7.72;5.03;;;7.30;99.90;;;;;;5032190;28;20056;-50
2021/10/19 00:31:41;;;;;;;11.13;5.68;;;7.30;99.90;;;;;;5032805;28;20472;-49
2021/10/19 00:34:06;;;;;;;8.35;5.57;;;7.30;99.90;;;;;;5032780;28;20419;-47
2021/10/19 00:36:32;;;;;;;9.90;5.57;;;7.30;99.90;;;;;;5032758;28;20053;-51
2021/10/19 00:38:57;;;;;;;10.90;7.63;;;7.40;99.90;;;;;;5032838;28;20021;-50
2021/10/19 00:41:23;;;;;;;8.85;4.78;;;7.40;99.90;;;;;;5031490;28;20583;-51
2021/10/19 00:43:50;;;;;;;10.70;5.30;;;7.40;99.90;;;;;;5032729;28;20044;-46
2021/10/19 00:46:16;;;;;;;8.43;5.35;;;7.50;99.90;;;;;;5032730;28;20029;-53
2021/10/19 00:48:46;;;;;;;9.05;5.55;;;7.50;99.90;;;;;;5032586;28;20022;-49
2021/10/19 00:51:12;;;;;;;11.02;7.03;;;7.50;99.90;;;;;;5032856;28;20044;-50
2021/10/19 00:53:37;;;;;;;9.93;5.53;;;7.60;99.90;;;;;;5032673;28;20034;-49
2021/10/19 00:56:06;;;;;;;10.20;6.47;;;7.60;99.90;;;;;;5031421;28;20101;-50
2021/10/19 00:58:31;;;;;;;11.23;6.60;;;7.60;99.90;;;;;;5032640;28;20025;-51
2021/10/19 01:00:57;;;;;;;9.80;5.95;;;7.60;99.90;;;;;;5032589;28;20084;-52
2021/10/19 01:03:22;;;;;;;7.60;5.03;;;7.50;99.90;;;;;;5032564;28;20034;-51
2021/10/19 01:05:48;;;;;;;10.30;6.38;;;7.50;99.90;;;;;;5032569;28;20469;-49
2021/10/19 01:08:13;;;;;;;12.77;7.22;;;7.50;99.90;;;;;;5032427;28;20398;-53
2021/10/19 01:10:39;;;;;;;7.95;5.47;;;7.50;99.90;;;;;;5031131;28;20527;-51
2021/10/19 01:13:05;;;;;;;12.82;6.65;;;7.40;99.90;;;;;;5032726;28;20205;-51
2021/10/19 01:15:33;;;;;;;14.75;8.82;;;7.40;99.90;;;;;;5032460;28;20026;-52
2021/10/19 01:17:59;;;;;;;11.93;7.00;;;7.40;99.90;;;;;;5032372;28;20032;-51
2021/10/19 01:20:27;;;;;;;12.35;7.90;;;7.40;99.90;;;;;;5032447;28;20022;-47
2021/10/19 01:22:54;;;;;;;8.88;5.93;;;7.30;99.90;;;;;;5032398;28;20033;-48
2021/10/19 01:25:22;;;;;;;12.70;7.45;;;7.30;99.90;;;;;;5031105;28;20018;-50
2021/10/19 01:27:53;;;;;;;11.95;7.07;;;7.30;99.90;;;;;;5032405;28;20477;-50
2021/10/19 01:30:20;;;;;;;10.40;6.05;;;7.30;99.90;;;;;;5032185;28;20071;-47
2021/10/19 01:32:46;;;;;;;14.50;7.55;;;7.30;99.90;;;;;;5032360;28;20029;-49
2021/10/19 01:35:11;;;;;;;9.25;6.45;;;7.30;99.90;;;;;;5032327;28;20408;-49
2021/10/19 01:37:37;;;;;;;14.32;7.07;;;7.20;99.90;;;;;;5032270;28;20025;-51
2021/10/19 01:40:29;;;;;;;11.57;6.68;;;7.20;99.90;;;;;;5032319;28;20033;-47
2021/10/19 01:42:54;;;;;;;10.00;6.55;;;7.10;99.90;;;;;;5033734;28;20057;-51
2021/10/19 01:45:20;;;;;;;10.48;5.90;;;7.10;99.90;;;;;;5035981;28;20021;-48
2021/10/19 01:47:46;;;;;;;9.05;5.95;;;7.10;99.90;;;;;;5035777;28;20484;-46
2021/10/19 01:50:14;;;;;;;9.80;5.97;;;7.10;99.90;;;;;;5035637;28;20033;-49
2021/10/19 01:52:40;;;;;;;11.57;6.68;;;7.10;99.90;;;;;;5035717;28;20033;-52
2021/10/19 01:55:07;;;;;;;11.48;6.20;;;7.10;99.90;;;;;;5034379;28;20327;-48
2021/10/19 01:57:33;;;;;;;10.27;5.80;;;7.10;99.90;;;;;;5035498;28;20021;-53
2021/10/19 01:59:59;;;;;;;11.05;6.38;;;7.10;99.90;;;;;;5035550;28;20033;-50
2021/10/19 02:02:25;;;;;;;13.30;6.43;;;7.20;99.90;;;;;;5035539;28;20393;-46
2021/10/19 02:04:50;;;;;;;8.10;5.53;;;7.10;99.90;;;;;;5035427;28;20037;-51
2021/10/19 02:07:16;;;;;;;8.73;5.50;;;7.10;99.90;;;;;;5035300;28;20049;-48
2021/10/19 02:09:41;;;;;;;12.07;6.47;;;7.10;99.90;;;;;;5033951;28;20392;-50
2021/10/19 02:12:07;;;;;;;11.45;7.57;;;7.10;99.90;;;;;;5035147;28;20096;-49
2021/10/19 02:14:32;;;;;;;11.15;7.28;;;7.10;99.90;;;;;;5035300;28;20057;-50
2021/10/19 02:16:58;;;;;;;10.25;7.68;;;7.10;99.90;;;;;;5035241;28;20417;-50
2021/10/19 02:19:26;;;;;;;12.52;7.32;;;7.10;99.90;;;;;;5033257;28;20033;-48
2021/10/19 02:21:52;;;;;;;10.20;6.60;;;7.10;99.90;;;;;;5035097;28;20464;-54
2021/10/19 02:24:19;;;;;;;10.35;6.78;;;7.20;99.90;;;;;;5033852;28;20148;-48
2021/10/19 02:26:45;;;;;;;10.18;6.70;;;7.20;99.90;;;;;;5034980;28;20068;-49
2021/10/19 02:29:11;;;;;;;11.35;6.57;;;7.20;99.90;;;;;;5035143;28;20018;-48
2021/10/19 02:31:36;;;;;;;12.80;8.05;;;7.20;99.90;;;;;;5034935;28;20132;-51
2021/10/19 02:34:02;;;;;;;12.13;7.60;;;7.30;99.90;;;;;;5034923;28;20071;-49
2021/10/19 02:36:27;;;;;;;12.75;7.45;;;7.30;99.90;;;;;;5034920;28;20396;-48
2021/10/19 02:38:53;;;;;;;14.48;8.50;;;7.30;99.90;;;;;;5034895;28;20067;-50
2021/10/19 02:41:18;;;;;;;13.52;7.97;;;7.30;99.90;;;;;;5033463;28;20407;-50
2021/10/19 02:43:43;;;;;;;11.07;7.22;;;7.30;99.90;;;;;;5034696;28;20075;-49
2021/10/19 02:46:09;;;;;;;16.35;8.95;;;7.30;99.90;;;;;;5034746;28;20034;-49
2021/10/19 02:48:34;;;;;;;13.45;7.60;;;7.30;99.90;;;;;;5034921;28;20461;-51
2021/10/19 02:51:00;;;;;;;12.70;7.53;;;7.40;99.90;;;;;;5034005;28;20061;-50
2021/10/19 02:53:25;;;;;;;12.75;8.07;;;7.40;99.90;;;;;;5034361;28;20100;-49
2021/10/19 02:55:51;;;;;;;11.43;7.10;;;7.40;99.90;;;;;;5033109;28;20030;-48
2021/10/19 02:58:16;;;;;;;11.32;7.82;;;7.40;99.90;;;;;;5034453;28;20536;-50
2021/10/19 03:00:42;;;;;;;13.35;8.05;;;7.40;99.90;;;;;;5034430;28;20029;-50
2021/10/19 03:03:07;;;;;;;11.98;7.43;;;7.40;99.90;;;;;;5034357;28;20477;-50
2021/10/19 03:05:33;;;;;;;12.10;7.53;;;7.50;99.90;;;;;;5034335;28;20025;-47
2021/10/19 03:07:58;;;;;;;12.25;7.80;;;7.40;99.90;;;;;;5034082;28;20096;-49
2021/10/19 03:10:24;;;;;;;10.73;6.80;;;7.50;99.90;;;;;;5032760;28;20041;-48
2021/10/19 03:12:49;;;;;;;16.70;8.32;;;7.50;99.90;;;;;;5034167;28;20389;-49
2021/10/19 03:15:19;;;;;;;15.52;9.00;;;7.60;99.90;;;;;;5034140;28;20083;-52
2021/10/19 03:17:45;;;;;;;12.75;8.02;;;7.60;99.90;;;;;;5034095;28;20457;-50
2021/10/19 03:20:10;;;;;;;13.52;7.93;;;7.60;99.90;;;;;;5034053;28;20061;-48
2021/10/19 03:22:36;;;;;;;16.55;9.82;;;7.60;99.90;;;;;;5034025;28;20108;-48
2021/10/19 03:25:03;;;;;;;17.75;11.70;;;7.70;99.90;;;;;;5032661;28;20033;-51
2021/10/19 03:27:28;;;;;;;17.92;10.82;;;7.70;99.90;;;;;;5033895;28;20353;-53
2021/10/19 03:29:54;;;;;;;18.67;12.13;;;7.70;99.90;;;;;;5033701;28;20030;-51
2021/10/19 03:32:19;;;;;;;18.42;10.07;;;7.80;99.90;;;;;;5033788;28;20491;-50
2021/10/19 03:34:45;;;;;;;19.65;12.50;;;7.80;99.90;;;;;;5033742;28;20108;-49
2021/10/19 03:37:10;;;;;;;19.08;11.77;;;7.90;99.90;;;;;;5033660;28;20029;-50
2021/10/19 03:39:36;;;;;;;15.00;9.80;;;7.90;99.90;;;;;;5032264;28;20026;-50
2021/10/19 03:42:02;;;;;;;17.40;10.85;;;7.90;99.90;;;;;;5033529;28;20473;-46
2021/10/19 03:44:28;;;;;;;18.75;11.18;;;7.90;99.90;;;;;;5033560;28;20028;-51
2021/10/19 03:46:53;;;;;;;17.00;9.88;;;7.90;99.90;;;;;;5033501;28;20033;-49
2021/10/19 03:49:19;;;;;;;15.18;9.88;;;8.00;99.90;;;;;;5033518;28;20028;-50
2021/10/19 03:51:44;;;;;;;15.43;9.98;;;8.00;99.90;;;;;;5033473;28;20109;-50
2021/10/19 03:54:10;;;;;;;15.70;9.68;;;8.00;99.90;;;;;;5032026;28;20100;-50
2021/10/19 03:56:36;;;;;;;15.43;9.27;;;8.00;99.90;;;;;;5033402;28;20396;-49
2021/10/19 03:59:01;;;;;;;14.23;9.07;;;8.00;99.90;;;;;;5033364;28;20037;-53
2021/10/19 04:01:26;;;;;;;14.35;8.88;;;8.00;99.90;;;;;;5033321;28;20536;-51
2021/10/19 04:03:52;;;;;;;16.70;9.75;;;8.00;99.90;;;;;;5032318;28;20084;-47
2021/10/19 04:06:18;;;;;;;20.15;11.00;;;8.00;99.90;;;;;;5033328;28;20508;-46
2021/10/19 04:08:43;;;;;;;15.75;10.05;;;8.00;99.90;;;;;;5032952;28;20049;-51
2021/10/19 04:11:09;;;;;;;17.70;10.85;;;8.00;99.90;;;;;;5031844;28;20040;-49
2021/10/19 04:13:35;;;;;;;17.27;11.57;;;8.10;99.90;;;;;;5033453;28;20579;-50
2021/10/19 04:16:00;;;;;;;15.77;10.20;;;8.10;99.90;;;;;;5033067;28;20021;-48
2021/10/19 04:18:26;;;;;;;19.67;11.35;;;8.20;99.90;;;;;;5033086;28;20078;-50
2021/10/19 04:20:51;;;;;;;17.27;11.30;;;8.20;99.90;;;;;;5032991;28;20034;-50
2021/10/19 04:23:17;;;;;;;16.55;11.27;;;8.20;99.90;;;;;;5032967;28;20037;-50
2021/10/19 04:25:42;;;;;;;17.90;10.82;;;8.30;99.90;;;;;;5031569;28;20416;-52
2021/10/19 04:28:08;;;;;;;17.33;10.77;;;8.30;99.90;;;;;;5032901;28;20064;-49
2021/10/19 04:30:33;;;;;;;18.63;11.95;;;8.30;99.90;;;;;;5032823;28;20109;-49
2021/10/19 04:32:59;;;;;;;14.45;10.25;;;8.30;99.90;;;;;;5032833;28;20025;-49
2021/10/19 04:35:25;;;;;;;17.65;10.00;;;8.40;99.90;;;;;;5032843;28;20036;-51
2021/10/19 04:37:50;;;;;;;16.20;10.50;;;8.40;99.90;;;;;;5032804;28;20029;-49
2021/10/19 04:40:16;;;;;;;17.30;10.60;;;8.40;99.90;;;;;;5031288;28;20027;-51
2021/10/19 04:42:41;;;;;;;15.30;10.10;;;8.40;99.90;;;;;;5032766;28;20033;-50
2021/10/19 04:45:08;;;;;;;13.73;8.52;;;8.40;99.90;;;;;;5032698;28;20041;-50
2021/10/19 04:47:34;;;;;;;13.68;8.55;;;8.40;99.90;;;;;;5032745;28;20387;-50
2021/10/19 04:50:00;;;;;;;13.38;8.82;;;8.40;99.90;;;;;;5032571;28;20033;-49
2021/10/19 04:52:27;;;;;;;17.30;11.15;;;8.40;99.90;;;;;;5032630;28;20030;-52
2021/10/19 04:54:53;;;;;;;19.23;10.65;;;8.40;99.90;;;;;;5031287;28;20025;-50
2021/10/19 04:57:19;;;;;;;14.30;9.35;;;8.40;99.90;;;;;;5032883;28;20341;-51
2021/10/19 04:59:44;;;;;;;14.77;8.88;;;8.40;99.90;;;;;;5032585;28;20044;-51
2021/10/19 05:02:10;;;;;;;14.52;9.88;;;8.30;99.90;;;;;;5032479;28;20326;-52
2021/10/19 05:04:35;;;;;;;14.68;9.07;;;8.30;99.90;;;;;;5032557;28;20072;-52
2021/10/19 05:07:01;;;;;;;13.25;8.75;;;8.30;99.90;;;;;;5032362;28;20128;-52
2021/10/19 05:09:26;;;;;;;16.20;9.63;;;8.30;99.90;;;;;;5031004;28;20405;-51
2021/10/19 05:11:52;;;;;;;19.23;11.52;;;8.30;99.90;;;;;;5032499;28;20041;-49
2021/10/19 05:14:17;;;;;;;15.98;11.00;;;8.30;99.90;;;;;;5032560;28;20021;-50
2021/10/19 05:16:43;;;;;;;18.88;10.98;;;8.30;99.90;;;;;;5036397;28;20021;-49
2021/10/19 05:19:08;;;;;;;17.48;11.35;;;8.30;99.90;;;;;;5036195;28;20057;-50
2021/10/19 05:21:34;;;;;;;18.90;12.23;;;8.30;99.90;;;;;;5036304;28;20037;-50
2021/10/19 05:23:59;;;;;;;18.67;12.07;;;8.30;99.90;;;;;;5034797;28;20476;-51
2021/10/19 05:26:25;;;;;;;21.23;13.38;;;8.30;99.90;;;;;;5036194;28;20072;-49
2021/10/19 05:28:50;;;;;;;17.77;10.95;;;8.30;99.90;;;;;;5036180;28;20033;-51
2021/10/19 05:31:16;;;;;;;17.58;11.05;;;8.30;99.90;;;;;;5036031;28;20072;-48
2021/10/19 05:33:41;;;;;;;15.52;9.63;;;8.30;99.90;;;;;;5036101;28;20052;-50
2021/10/19 05:36:07;;;;;;;18.95;11.02;;;8.40;99.90;;;;;;5035973;28;20380;-50
2021/10/19 05:38:33;;;;;;;14.02;9.38;;;8.30;99.90;;;;;;5035827;28;20037;-53
2021/10/19 05:41:00;;;;;;;15.57;9.27;;;8.30;99.90;;;;;;5034706;28;20481;-50
2021/10/19 05:43:26;;;;;;;16.15;9.20;;;8.30;99.90;;;;;;5035852;28;20033;-50
2021/10/19 05:45:51;;;;;;;15.43;9.38;;;8.30;99.90;;;;;;5035901;28;20370;-52
2021/10/19 05:48:17;;;;;;;16.60;9.32;;;8.20;99.90;;;;;;5035766;28;20038;-52
2021/10/19 05:50:43;;;;;;;15.10;10.43;;;8.20;99.90;;;;;;5035638;28;20037;-51
2021/10/19 05:53:08;;;;;;;17.02;9.57;;;8.20;99.90;;;;;;5035588;28;20488;-48
2021/10/19 05:55:34;;;;;;;16.98;9.23;;;8.20;99.90;;;;;;5034313;28;20116;-50
2021/10/19 05:58:00;;;;;;;14.57;8.88;;;8.10;99.90;;;;;;5035538;28;20414;-50
2021/10/19 06:00:25;;;;;;;15.82;9.95;;;8.10;99.90;;;;;;5035542;28;20041;-49
2021/10/19 06:02:51;;;;;;;14.95;9.52;;;8.10;99.90;;;;;;5035523;28;20021;-47
2021/10/19 06:05:16;;;;;;;14.20;9.02;;;8.10;99.90;;;;;;5035482;28;20117;-49
2021/10/19 06:07:42;;;;;;;15.02;9.07;;;8.00;99.90;;;;;;5035179;28;20076;-49
2021/10/19 06:10:08;;;;;;;13.32;8.63;;;8.00;99.90;;;;;;5033965;28;20029;-49
2021/10/19 06:12:33;;;;;;;18.27;10.07;;;8.00;99.90;;;;;;5035289;28;20416;-48
2021/10/19 06:14:59;;;;;;;16.75;9.48;;;8.00;99.90;;;;;;5035269;28;20029;-50
2021/10/19 06:17:24;;;;;;;15.27;9.00;;;8.00;99.90;;;;;;5035277;28;20373;-46
2021/10/19 06:19:50;;;;;;;16.77;9.98;;;8.00;99.90;;;;;;5035218;28;20025;-46
2021/10/19 06:22:16;;;;;;;16.50;9.23;;;8.10;99.90;;;;;;5035057;28;20523;-46
2021/10/19 06:24:41;;;;;;;15.80;9.55;;;8.10;99.90;;;;;;5033804;28;20072;-48
2021/10/19 06:27:07;;;;;;;15.73;10.45;;;8.20;99.90;;;;;;5033906;28;20040;-50
2021/10/19 06:29:33;;;;;;;16.75;10.43;;;8.20;99.90;;;;;;5034939;28;20053;-51
2021/10/19 06:31:58;;;;;;;17.60;10.00;;;8.30;99.90;;;;;;5034958;28;20057;-50
2021/10/19 06:34:24;;;;;;;14.05;9.38;;;8.40;99.90;;;;;;5034814;28;20045;-49
2021/10/19 06:36:49;;;;;;;13.77;8.27;;;8.60;99.90;;;;;;5034767;28;20057;-51
2021/10/19 06:39:15;;;;;;;13.35;8.23;;;8.80;99.90;;;;;;5033401;28;20037;-47
2021/10/19 06:41:40;;;;;;;15.75;9.55;;;9.10;99.90;;;;;;5034821;28;20029;-51
2021/10/19 06:44:06;;;;;;;13.80;9.38;;;9.20;99.90;;;;;;5034675;28;20044;-49
2021/10/19 06:46:32;;;;;;;16.35;9.88;;;9.20;99.90;;;;;;5034602;28;20029;-51
2021/10/19 06:48:58;;;;;;;15.55;8.48;;;9.30;99.90;;;;;;5034688;28;20457;-47
2021/10/19 06:51:23;;;;;;;17.10;9.02;;;9.40;99.90;;;;;;5034477;28;20113;-49
2021/10/19 06:53:49;;;;;;;14.35;9.05;;;9.60;99.90;;;;;;5034437;28;20029;-49
2021/10/19 06:56:14;;;;;;;14.82;9.77;;;9.70;99.90;;;;;;5033315;28;20032;-50
2021/10/19 06:58:40;;;;;;;15.95;9.52;;;9.80;99.90;;;;;;5034454;28;20138;-52
2021/10/19 07:01:05;;;;;;;12.57;8.85;;;9.90;99.90;;;;;;5034669;28;20053;-48
2021/10/19 07:03:32;;;;;;;17.63;9.50;;;10.10;99.90;;;;;;5034283;28;20045;-49
2021/10/19 07:06:05;;;;;;;18.67;9.88;;;10.20;99.90;;;;;;5034356;28;20034;-51
2021/10/19 07:08:33;;;;;;;14.25;9.30;;;10.20;99.90;;;;;;5034053;28;20508;-49
2021/10/19 07:10:58;;;;;;;16.35;9.45;;;10.30;99.90;;;;;;5032901;28;20026;-50
2021/10/19 07:13:24;;;;;;;16.25;9.55;;;10.30;99.90;;;;;;5034209;28;20052;-51
2021/10/19 07:15:53;;;;;;;13.05;8.77;;;10.30;99.90;;;;;;5034189;28;20453;-51
2021/10/19 07:18:20;;;;;;;14.48;8.95;;;10.30;99.90;;;;;;5034048;28;20045;-47
2021/10/19 07:20:45;;;;;;;11.07;7.90;;;10.30;99.90;;;;;;5033971;28;20044;-50
2021/10/19 07:23:11;;;;;;;15.98;10.70;;;10.40;99.90;;;;;;5033839;28;20038;-49
2021/10/19 07:25:38;;;;;;;15.98;9.95;;;10.40;99.90;;;;;;5032678;28;20053;-50
2021/10/19 07:28:04;;;;;;;14.98;10.40;;;10.40;99.90;;;;;;5033936;28;20075;-50
2021/10/19 07:30:29;;;;;;;14.80;9.50;;;10.40;99.90;;;;;;5033758;28;20033;-46
2021/10/19 07:32:55;;;;;;;12.75;8.90;;;10.50;99.90;;;;;;5033892;28;20021;-50
2021/10/19 07:35:22;;;;;;;13.27;8.73;;;10.50;99.90;;;;;;5033506;28;20496;-52
2021/10/19 07:37:48;;;;;;;15.05;10.02;;;10.60;99.90;;;;;;5033562;28;20501;-53
2021/10/19 07:40:15;;;;;;;16.88;11.25;;;10.60;99.90;;;;;;5032393;28;20104;-49
2021/10/19 07:42:41;;;;;;;16.38;10.38;;;10.60;99.90;;;;;;5033615;28;20060;-49
2021/10/19 07:45:09;;;;;;;18.20;11.27;;;10.70;99.90;;;;;;5033542;28;20487;-48
2021/10/19 07:47:39;;;;;;;15.77;11.00;;;10.80;99.90;;;;;;5033472;28;20500;-48
2021/10/19 07:50:05;;;;;;;14.02;9.23;;;11.00;99.90;;;;;;5033315;28;20061;-50
2021/10/19 07:52:30;;;;;;;14.50;9.73;;;11.10;99.90;;;;;;5033423;28;20025;-49
2021/10/19 07:54:56;;;;;;;14.95;9.27;;;11.30;99.90;;;;;;5032115;28;20101;-50
2021/10/19 07:57:21;;;;;;;14.82;9.35;;;11.40;99.90;;;;;;5033376;28;20044;-46
2021/10/19 07:59:48;;;;;;;14.02;8.55;;;11.50;99.90;;;;;;5033378;28;20103;-49
2021/10/19 08:02:13;;;;;;;12.00;8.10;;;11.60;99.90;;;;;;5033238;28;20064;-53
2021/10/19 08:04:39;;;;;;;15.40;8.80;;;11.70;99.90;;;;;;5033140;28;20025;-49
2021/10/19 08:07:04;;;;;;;11.80;8.45;;;11.80;99.90;;;;;;5033041;28;20073;-48
2021/10/19 08:09:30;;;;;;;13.88;9.63;;;11.80;99.90;;;;;;5031884;28;20037;-52
2021/10/19 08:11:55;;;;;;;13.48;9.52;;;11.80;99.90;;;;;;5033141;28;20034;-50
2021/10/19 08:14:21;;;;;;;13.80;9.45;;;11.90;99.90;;;;;;5033050;28;20032;-53
2021/10/19 08:16:46;;;;;;;16.20;10.38;;;11.90;99.90;;;;;;5033148;28;20428;-50
2021/10/19 08:19:12;;;;;;;12.25;7.93;;;11.90;99.90;;;;;;5032936;28;20053;-50
2021/10/19 08:21:37;;;;;;;14.20;8.98;;;11.90;99.90;;;;;;5032902;28;20477;-51
2021/10/19 08:24:03;;;;;;;12.18;8.02;;;12.00;99.90;;;;;;5031754;28;20033;-46
2021/10/19 08:26:32;;;;;;;11.60;7.40;;;12.10;99.90;;;;;;5032935;28;20175;-50
2021/10/19 08:29:02;;;;;;;14.65;8.68;;;12.20;99.90;;;;;;5032943;28;20038;-50
2021/10/19 08:31:29;;;;;;;18.08;9.10;;;12.20;99.90;;;;;;5032836;28;20026;-50
2021/10/19 08:33:55;;;;;;;10.98;8.13;;;12.30;99.90;;;;;;5032843;28;20032;-47
2021/10/19 08:36:21;;;;;;;9.48;7.00;;;12.50;99.90;;;;;;5032745;28;20041;-53
2021/10/19 08:38:48;;;;;;;14.05;7.82;;;12.80;99.90;;;;;;5032743;28;20039;-50
2021/10/19 08:41:15;;;;;;;13.93;9.15;;;13.10;99.90;;;;;;5032214;28;20384;-53
2021/10/19 08:43:41;;;;;;;11.35;7.55;;;13.30;99.90;;;;;;5032756;28;20468;-51
2021/10/19 08:46:11;;;;;;;14.10;9.02;;;13.40;99.90;;;;;;5032682;28;20036;-51
2021/10/19 08:48:38;;;;;;;14.48;9.18;;;13.60;99.90;;;;;;5032620;28;20124;-49
2021/10/19 08:51:05;;;;;;;12.93;8.75;;;13.70;99.90;;;;;;5036006;28;20029;-49
2021/10/19 08:53:34;;;;;;;11.70;8.15;;;13.80;99.90;;;;;;5036803;28;20024;-49
2021/10/19 08:55:59;;;;;;;10.55;7.57;;;14.00;99.90;;;;;;5035469;28;20028;-49
2021/10/19 08:58:25;;;;;;;8.73;7.00;;;14.20;99.90;;;;;;5036710;28;20143;-50
2021/10/19 09:01:01;;;;;;;11.48;7.75;;;14.40;99.90;;;;;;5036675;28;20068;-50
2021/10/19 09:03:27;;;;;;;8.57;6.15;;;14.60;99.90;;;;;;5036585;28;20488;-51
2021/10/19 09:05:52;;;;;;;8.05;6.55;;;14.90;99.90;;;;;;5036629;28;20091;-47
2021/10/19 09:08:18;;;;;;;10.45;7.70;;;15.20;99.90;;;;;;5036340;28;20049;-50
2021/10/19 09:10:46;;;;;;;9.90;7.05;;;15.40;99.90;;;;;;5035158;28;20025;-51
2021/10/19 09:13:16;;;;;;;12.15;9.02;;;15.60;99.90;;;;;;5036455;28;20485;-48
2021/10/19 09:15:44;;;;;;;9.55;7.45;;;15.70;99.90;;;;;;5036275;28;20013;-46
2021/10/19 09:18:12;;;;;;;9.95;7.43;;;15.80;99.90;;;;;;5036382;28;20034;-48
2021/10/19 09:20:56;;;;;;;8.63;5.90;;;15.80;99.90;;;;;;5035018;28;20037;-52
2021/10/19 09:23:24;;;;;;;11.45;8.32;;;16.00;99.90;;;;;;5036199;28;20033;-49
2021/10/19 09:25:52;;;;;;;12.70;8.57;;;16.00;99.90;;;;;;5034954;28;20037;-50
2021/10/19 09:28:39;;;;;;;11.55;8.52;;;16.00;99.90;;;;;;5036148;28;20067;-51
2021/10/19 09:31:06;;;;;;;10.65;8.45;;;16.00;97.70;;;;;;5036137;28;20026;-49
2021/10/19 09:33:31;;;;;;;11.95;8.68;;;15.90;99.90;;;;;;5035966;28;20021;-48
2021/10/19 09:36:01;;;;;;;11.18;8.25;;;16.00;99.90;;;;;;5036046;28;20140;-51
2021/10/19 09:38:28;;;;;;;9.75;7.57;;;16.00;99.90;;;;;;5034555;28;20219;-47
2021/10/19 09:40:56;;;;;;;10.75;7.13;;;16.10;99.90;;;;;;5034686;28;20039;-50
2021/10/19 09:43:26;;;;;;;9.77;7.55;;;16.10;99.90;;;;;;5035875;28;20036;-49
2021/10/19 09:45:55;;;;;;;9.73;7.50;;;16.00;99.90;;;;;;5035920;28;20021;-49
2021/10/19 09:48:23;;;;;;;9.98;7.65;;;16.10;99.90;;;;;;5035883;28;20049;-46
2021/10/19 09:50:49;;;;;;;10.27;7.10;;;16.10;99.90;;;;;;5035743;28;20666;-47
2021/10/19 09:53:17;;;;;;;11.18;7.80;;;16.00;99.90;;;;;;5035781;28;20049;-49
2021/10/19 09:55:44;;;;;;;11.02;7.70;;;15.90;98.00;;;;;;5034333;28;20124;-49
2021/10/19 09:58:10;;;;;;;13.95;9.02;;;15.90;99.60;;;;;;5035733;28;20064;-51
2021/10/19 10:00:37;;;;;;;11.52;7.53;;;15.80;99.90;;;;;;5035610;28;20472;-48
2021/10/19 10:03:04;;;;;;;10.77;7.90;;;15.80;99.90;;;;;;5034370;28;20025;-49
2021/10/19 10:05:34;;;;;;;9.27;7.68;;;15.80;99.90;;;;;;5035483;28;20032;-47
2021/10/19 10:08:01;;;;;;;11.18;8.10;;;15.80;99.90;;;;;;5035364;28;20045;-46
2021/10/19 10:10:28;;;;;;;11.35;8.15;;;15.80;99.90;;;;;;5034065;28;20483;-50
2021/10/19 10:13:12;;;;;;;10.18;7.43;;;15.80;99.90;;;;;;5035393;28;20461;-50
2021/10/19 10:15:38;;;;;;;10.95;7.60;;;15.80;99.90;;;;;;5035356;28;20025;-48
2021/10/19 10:18:05;;;;;;;15.38;7.65;;;15.80;99.90;;;;;;5035311;28;20029;-52
2021/10/19 10:20:34;;;;;;;10.63;7.45;;;15.90;99.90;;;;;;5035253;28;20018;-48
2021/10/19 10:23:10;;;;;;;10.15;6.85;;;16.00;99.90;;;;;;5035254;28;20029;-52
2021/10/19 10:25:37;;;;;;;12.32;7.65;;;16.00;97.80;;;;;;5033805;28;20029;-49
2021/10/19 10:28:14;;;;;;;11.13;6.85;;;16.10;99.90;;;;;;5035219;28;20025;-49
2021/10/19 10:30:40;;;;;;;10.85;7.18;;;16.20;98.10;;;;;;5034909;28;20357;-45
2021/10/19 10:33:06;;;;;;;10.45;7.22;;;16.30;99.90;;;;;;5035022;28;20100;-47
2021/10/19 10:35:33;;;;;;;11.02;6.68;;;16.30;96.90;;;;;;5034925;28;20056;-53
2021/10/19 10:37:58;;;;;;;8.90;6.30;;;16.40;98.60;;;;;;5034997;28;20037;-49
2021/10/19 10:40:38;;;;;;;8.20;5.95;;;16.50;99.90;;;;;;5033659;28;20420;-47
2021/10/19 10:43:20;;;;;;;7.30;5.60;;;16.60;98.10;;;;;;5034883;28;20116;-47
2021/10/19 10:45:47;;;;;;;8.38;5.70;;;16.70;98.10;;;;;;5034737;28;20029;-47
2021/10/19 10:48:15;;;;;;;8.57;6.13;;;16.90;97.30;;;;;;5034809;28;20326;-49
2021/10/19 10:50:40;;;;;;;10.15;6.78;;;16.90;98.00;;;;;;5034565;28;20488;-47
2021/10/19 10:53:08;;;;;;;11.07;6.45;;;16.90;97.50;;;;;;5034626;28;20029;-50
2021/10/19 10:55:49;;;;;;;9.65;7.00;;;16.80;96.70;;;;;;5033245;28;20072;-49
2021/10/19 10:58:29;;;;;;;8.77;7.53;;;16.80;94.20;;;;;;5034568;28;20461;-50
2021/10/19 11:00:55;;;;;;;8.98;6.50;;;16.70;95.30;;;;;;5034463;28;20507;-48
2021/10/19 11:03:21;;;;;;;10.93;7.32;;;16.70;96.50;;;;;;5034402;28;20038;-47
2021/10/19 11:05:55;;;;;;;9.00;6.85;;;16.60;94.20;;;;;;5034324;28;20025;-52
2021/10/19 11:08:22;;;;;;;6.82;5.18;;;16.50;95.70;;;;;;5034079;28;20046;-52
2021/10/19 11:10:52;;;;;;;14.43;7.53;;;16.60;98.20;;;;;;5032858;28;20053;-50
2021/10/19 11:13:17;;;;;;;7.88;6.32;;;16.50;95.80;;;;;;5033733;28;20105;-53
2021/10/19 11:15:50;;;;;;;8.02;6.90;;;16.50;97.10;;;;;;5034200;28;20444;-48
2021/10/19 11:18:16;;;;;;;9.82;6.85;;;16.50;96.90;;;;;;5034198;28;20021;-49
2021/10/19 11:20:54;;;;;;;10.68;7.43;;;16.50;96.90;;;;;;5033966;28;20021;-48
2021/10/19 11:23:20;;;;;;;10.30;7.45;;;16.50;95.60;;;;;;5034143;28;20516;-49
2021/10/19 11:25:46;;;;;;;7.03;5.70;;;16.50;96.50;;;;;;5032681;28;20060;-49
2021/10/19 11:28:12;;;;;;;8.10;5.80;;;16.60;97.30;;;;;;5034068;28;20033;-50
2021/10/19 11:30:38;;;;;;;7.20;5.70;;;16.70;97.50;;;;;;5033816;28;20021;-51
2021/10/19 11:33:08;;;;;;;7.18;4.82;;;16.90;97.40;;;;;;5033855;28;20060;-49
2021/10/19 11:35:33;;;;;;;9.68;6.20;;;17.10;97.00;;;;;;5033855;28;20017;-50
2021/10/19 11:37:59;;;;;;;7.30;5.88;;;17.10;95.90;;;;;;5033776;28;20503;-47
2021/10/19 11:40:25;;;;;;;6.32;5.05;;;17.20;96.00;;;;;;5032503;28;20033;-47
2021/10/19 11:42:55;;;;;;;6.15;4.85;;;17.30;96.10;;;;;;5033709;28;20583;-49
2021/10/19 11:45:23;;;;;;;7.95;4.93;;;17.40;96.10;;;;;;5033721;28;20018;-46
2021/10/19 11:47:54;;;;;;;8.27;5.95;;;17.40;96.00;;;;;;5033540;28;20199;-49
2021/10/19 11:50:27;;;;;;;8.25;6.32;;;17.40;93.70;;;;;;5033543;28;20079;-51
2021/10/19 11:52:53;;;;;;;6.95;6.03;;;17.40;92.90;;;;;;5033521;28;20022;-49
2021/10/19 11:55:19;;;;;;;9.40;6.28;;;17.30;91.40;;;;;;5032224;28;20381;-49
2021/10/19 11:57:50;;;;;;;7.05;5.72;;;17.20;92.90;;;;;;5033425;28;20026;-54
2021/10/19 12:00:16;;;;;;;6.78;5.35;;;17.20;93.40;;;;;;5033437;28;20432;-51
2021/10/19 12:02:53;;;;;;;9.02;5.90;;;17.20;93.60;;;;;;5033300;28;20061;-49
2021/10/19 12:05:22;;;;;;;6.70;4.80;;;17.20;92.80;;;;;;5033323;28;20029;-47
2021/10/19 12:07:50;;;;;;;8.40;6.03;;;17.20;93.30;;;;;;5033142;28;20147;-45
2021/10/19 12:10:25;;;;;;;8.20;5.93;;;17.10;93.00;;;;;;5031905;28;20465;-50
2021/10/19 12:12:59;;;;;;;6.05;5.35;;;17.20;93.10;;;;;;5033032;28;20025;-51
2021/10/19 12:15:27;;;;;;;6.90;5.22;;;17.20;92.10;;;;;;5033305;28;20416;-47
2021/10/19 12:18:01;;;;;;;6.82;4.75;;;17.20;93.30;;;;;;5033116;28;20057;-50
2021/10/19 12:20:29;;;;;;;5.50;4.20;;;17.20;93.50;;;;;;5033099;28;20025;-47
2021/10/19 12:23:07;;;;;;;6.78;5.00;;;17.30;94.30;;;;;;5033217;28;20388;-47
2021/10/19 12:25:36;;;;;;;6.45;4.68;;;17.40;93.80;;;;;;5030778;28;20029;-49
2021/10/19 12:28:03;;;;;;;9.32;5.13;;;17.40;92.50;;;;;;5032897;28;20083;-50
2021/10/19 12:30:40;;;;;;;9.07;5.07;;;17.40;93.90;;;;;;5032845;28;20032;-49
2021/10/19 12:33:17;;;;;;;5.93;4.10;;;17.30;93.00;;;;;;5032913;28;20025;-51
2021/10/19 12:35:54;;;;;;;7.53;4.68;;;17.30;92.70;;;;;;5032767;28;20469;-53
2021/10/19 12:38:28;;;;;;;5.75;3.97;;;17.30;93.10;;;;;;5032866;28;20100;-52
2021/10/19 12:40:54;;;;;;;7.97;4.30;;;17.30;94.20;;;;;;5031519;28;20374;-49